createdAt,value
2018-08-28T06:03:46.627Z,996
2018-08-28T06:04:48.155Z,1004
2018-08-28T06:06:10.782Z,1020
2018-08-28T06:07:12.165Z,1032
2018-08-28T06:08:13.570Z,1040
2018-08-28T06:09:15.000Z,1048
2018-08-28T06:10:16.423Z,1060
2018-08-28T06:11:17.834Z,1072
2018-08-28T06:12:19.247Z,1080
2018-08-28T06:13:20.642Z,1092
2018-08-28T06:14:22.034Z,1104
2018-08-28T06:15:23.426Z,1116
2018-08-28T06:16:24.855Z,1128
2018-08-28T06:17:26.291Z,1136
2018-08-28T06:18:27.637Z,1152
2018-08-28T06:19:29.062Z,1160
2018-08-28T06:20:30.458Z,1172
2018-08-28T06:21:31.883Z,1188
2018-08-28T06:22:33.276Z,1196
2018-08-28T06:23:34.743Z,1204
2018-08-28T06:24:36.166Z,1220
2018-08-28T06:25:37.558Z,1232
2018-08-28T06:26:38.959Z,1248
2018-08-28T06:27:40.375Z,1260
2018-08-28T06:28:41.768Z,1272
2018-08-28T06:29:43.285Z,1280
2018-08-28T06:30:44.750Z,1288
2018-08-28T06:31:46.160Z,1300
2018-08-28T06:32:47.598Z,1312
2018-08-28T06:33:49.003Z,1324
2018-08-28T06:34:50.393Z,1336
2018-08-28T06:35:51.788Z,1348
2018-08-28T06:36:53.320Z,1356
2018-08-28T06:37:54.770Z,1372
2018-08-28T06:38:56.167Z,1388
2018-08-28T06:39:57.598Z,1400
2018-08-28T06:40:59.103Z,1420
2018-08-28T06:42:00.570Z,1432
2018-08-28T06:43:02.002Z,1448
2018-08-28T06:44:03.516Z,1464
2018-08-28T06:45:04.896Z,1480
2018-08-28T06:46:06.293Z,1492
2018-08-28T06:47:07.866Z,1508
2018-08-28T06:48:09.279Z,1520
2018-08-28T06:49:10.762Z,1536
2018-08-28T06:50:12.298Z,1552
2018-08-28T06:51:13.715Z,1568
2018-08-28T06:52:15.116Z,1588
2018-08-28T06:53:16.669Z,1604
2018-08-28T06:54:18.068Z,1620
2018-08-28T06:55:19.578Z,1632
2018-08-28T06:56:20.968Z,1648
2018-08-28T06:57:22.434Z,1664
2018-08-28T06:58:23.935Z,1680
2018-08-28T06:59:25.339Z,1696
2018-08-28T07:00:26.777Z,1712
2018-08-28T07:01:28.173Z,1732
2018-08-28T07:02:29.811Z,1748
2018-08-28T07:03:31.162Z,1764
2018-08-28T07:04:32.603Z,1780
2018-08-28T07:05:34.034Z,1792
2018-08-28T07:06:35.457Z,1808
2018-08-28T07:07:36.855Z,1824
2018-08-28T07:08:38.341Z,1840
2018-08-28T07:09:40.753Z,1856
2018-08-28T07:10:42.324Z,1872
2018-08-28T07:11:43.774Z,1892
2018-08-28T07:12:45.241Z,1912
2018-08-28T07:13:46.635Z,1928
2018-08-28T07:14:48.037Z,1948
2018-08-28T07:15:49.617Z,1964
2018-08-28T07:16:51.054Z,1984
2018-08-28T07:17:52.469Z,1996
2018-08-28T07:18:53.995Z,2012
2018-08-28T07:19:55.273Z,2028
2018-08-28T07:20:56.675Z,2048
2018-08-28T07:21:58.077Z,2064
2018-08-28T07:22:59.473Z,2080
2018-08-28T07:24:00.867Z,2104
2018-08-28T07:25:02.267Z,2124
2018-08-28T07:26:03.832Z,2148
2018-08-28T07:27:05.252Z,2172
2018-08-28T07:28:06.837Z,2192
2018-08-28T07:29:08.390Z,2220
2018-08-28T07:30:09.814Z,2244
2018-08-28T07:31:11.239Z,2264
2018-08-28T07:32:12.564Z,2284
2018-08-28T07:33:13.957Z,2300
2018-08-28T07:34:15.424Z,2320
2018-08-28T07:35:16.833Z,2332
2018-08-28T07:36:18.227Z,2364
2018-08-28T07:37:19.683Z,2388
2018-08-28T07:38:21.114Z,2392
2018-08-28T07:39:22.512Z,2432
2018-08-28T07:40:24.076Z,2468
2018-08-28T07:41:25.575Z,2468
2018-08-28T07:42:26.980Z,2512
2018-08-28T07:43:28.388Z,2560
2018-08-28T07:44:29.786Z,2572
2018-08-28T07:45:31.308Z,2600
2018-08-28T07:46:32.711Z,2640
2018-08-28T07:47:34.107Z,2688
2018-08-28T07:48:35.610Z,2692
2018-08-28T07:49:37.044Z,2752
2018-08-28T07:50:38.489Z,2764
2018-08-28T07:51:39.964Z,2792
2018-08-28T07:52:41.530Z,2832
2018-08-28T07:53:43.022Z,2872
2018-08-28T07:54:44.405Z,2924
2018-08-28T07:55:45.839Z,2992
2018-08-28T07:56:47.235Z,3076
2018-08-28T07:57:48.657Z,3180
2018-08-28T07:58:50.094Z,3284
2018-08-28T07:59:51.577Z,3424
2018-08-28T08:00:53.047Z,3524
2018-08-28T08:01:54.512Z,3676
2018-08-28T08:02:56.010Z,3804
2018-08-28T08:03:57.401Z,4016
2018-08-28T08:04:58.784Z,4048
2018-08-28T08:06:00.228Z,4136
2018-08-28T08:07:01.715Z,4288
2018-08-28T08:08:03.120Z,4392
2018-08-28T08:09:04.534Z,4456
2018-08-28T08:10:06.048Z,4440
2018-08-28T08:11:07.577Z,4444
2018-08-28T08:12:09.096Z,4408
2018-08-28T08:13:10.565Z,4408
2018-08-28T08:14:12.071Z,4232
2018-08-28T08:15:13.474Z,4120
2018-08-28T08:16:14.964Z,4048
2018-08-28T08:17:16.413Z,3912
2018-08-28T08:18:17.809Z,3604
2018-08-28T08:19:19.232Z,3376
2018-08-28T08:20:20.625Z,3364
2018-08-28T08:21:22.085Z,3536
2018-08-28T08:22:23.563Z,3632
2018-08-28T08:23:24.913Z,3604
2018-08-28T08:24:26.327Z,4012
2018-08-28T08:25:27.724Z,4108
2018-08-28T08:26:29.134Z,4200
2018-08-28T08:27:30.564Z,4232
2018-08-28T08:28:32.017Z,4376
2018-08-28T08:29:33.447Z,4524
2018-08-28T08:30:34.792Z,5216
2018-08-28T08:31:36.215Z,4760
2018-08-28T08:32:37.665Z,4760
2018-08-28T08:33:39.065Z,5316
2018-08-28T08:34:40.495Z,5052
2018-08-28T08:35:42.002Z,5172
2018-08-28T08:36:43.434Z,5532
2018-08-28T08:37:44.860Z,5428
2018-08-28T08:38:46.309Z,5396
2018-08-28T08:39:47.742Z,5456
2018-08-28T08:40:49.165Z,5484
2018-08-28T08:41:50.587Z,5508
2018-08-28T08:42:52.051Z,5408
2018-08-28T08:43:53.466Z,5572
2018-08-28T08:44:54.927Z,5756
2018-08-28T08:45:56.463Z,6084
2018-08-28T08:46:57.886Z,6132
2018-08-28T08:47:59.327Z,6328
2018-08-28T08:49:00.771Z,6500
2018-08-28T08:50:02.182Z,6644
2018-08-28T08:51:03.641Z,6480
2018-08-28T08:52:05.038Z,6264
2018-08-28T08:53:06.493Z,5908
2018-08-28T08:54:08.066Z,6768
2018-08-28T08:55:09.511Z,6088
2018-08-28T08:56:10.986Z,6096
2018-08-28T08:57:12.500Z,5620
2018-08-28T08:58:14.091Z,4600
2018-08-28T08:59:15.541Z,4380
2018-08-28T09:00:16.943Z,4064
2018-08-28T09:01:18.377Z,3832
2018-08-28T09:02:19.795Z,3744
2018-08-28T09:03:21.306Z,3608
2018-08-28T09:04:22.657Z,3460
2018-08-28T09:05:24.106Z,3328
2018-08-28T09:06:25.506Z,3248
2018-08-28T09:07:27.011Z,3160
2018-08-28T09:08:28.397Z,3124
2018-08-28T09:09:29.939Z,3132
2018-08-28T09:10:31.379Z,3032
2018-08-28T09:11:32.779Z,2888
2018-08-28T09:12:34.203Z,2712
2018-08-28T09:13:35.770Z,2640
2018-08-28T09:14:37.039Z,2572
2018-08-28T09:15:38.463Z,2524
2018-08-28T09:16:39.866Z,2460
2018-08-28T09:17:41.346Z,2456
2018-08-28T09:18:42.747Z,2420
2018-08-28T09:19:44.208Z,2348
2018-08-28T09:20:45.622Z,2312
2018-08-28T09:21:47.024Z,2260
2018-08-28T09:22:48.460Z,2288
2018-08-28T09:23:49.891Z,2336
2018-08-28T09:24:51.322Z,2408
2018-08-28T09:25:52.761Z,2496
2018-08-28T09:26:54.250Z,2588
2018-08-28T09:27:55.670Z,2628
2018-08-28T09:28:57.129Z,2656
2018-08-28T09:29:58.558Z,2704
2018-08-28T09:31:00.057Z,2780
2018-08-28T09:32:01.391Z,2892
2018-08-28T09:33:02.873Z,3060
2018-08-28T09:34:04.366Z,3220
2018-08-28T09:35:05.677Z,3316
2018-08-28T09:36:07.105Z,3296
2018-08-28T09:37:08.626Z,3256
2018-08-28T09:38:10.098Z,3316
2018-08-28T09:39:11.477Z,3396
2018-08-28T09:40:12.880Z,3488
2018-08-28T09:41:14.338Z,3620
2018-08-28T09:42:15.765Z,3748
2018-08-28T09:43:17.218Z,3804
2018-08-28T09:44:18.691Z,3776
2018-08-28T09:45:20.150Z,3760
2018-08-28T09:46:21.642Z,3616
2018-08-28T09:47:23.076Z,3704
2018-08-28T09:48:24.651Z,3812
2018-08-28T09:49:26.120Z,3904
2018-08-28T09:50:27.581Z,3876
2018-08-28T09:51:28.982Z,3816
2018-08-28T09:52:30.388Z,3696
2018-08-28T09:53:31.890Z,3624
2018-08-28T09:54:33.312Z,3612
2018-08-28T09:55:34.767Z,3608
2018-08-28T09:56:36.244Z,3660
2018-08-28T09:57:37.657Z,3696
2018-08-28T09:58:39.080Z,3680
2018-08-28T09:59:40.598Z,3640
2018-08-28T10:00:42.061Z,3632
2018-08-28T10:01:43.506Z,3652
2018-08-28T10:02:44.931Z,3732
2018-08-28T10:03:46.373Z,3816
2018-08-28T10:04:47.848Z,3856
2018-08-28T10:05:49.221Z,3836
2018-08-28T10:06:50.620Z,3820
2018-08-28T10:07:52.105Z,3824
2018-08-28T10:08:53.479Z,3856
2018-08-28T10:09:54.928Z,4060
2018-08-28T10:10:56.411Z,4320
2018-08-28T10:11:57.755Z,4536
2018-08-28T10:12:59.161Z,4648
2018-08-28T10:14:00.601Z,4584
2018-08-28T10:15:02.026Z,4592
2018-08-28T10:16:03.516Z,4632
2018-08-28T10:17:04.998Z,4796
2018-08-28T10:18:06.431Z,5088
2018-08-28T10:19:07.899Z,5364
2018-08-28T10:20:09.580Z,5444
2018-08-28T10:21:11.027Z,5368
2018-08-28T10:22:12.498Z,5484
2018-08-28T10:23:13.981Z,5828
2018-08-28T10:24:15.392Z,5668
2018-08-28T10:25:16.865Z,5508
2018-08-28T10:26:18.287Z,5232
2018-08-28T10:27:19.787Z,4796
2018-08-28T10:28:21.230Z,4648
2018-08-28T10:29:22.703Z,4692
2018-08-28T10:30:25.261Z,4968
2018-08-28T10:31:26.577Z,5440
2018-08-28T10:32:28.056Z,5984
2018-08-28T10:33:29.509Z,6252
2018-08-28T10:34:30.908Z,6300
2018-08-28T10:35:32.355Z,6736
2018-08-28T10:36:33.786Z,9272
2018-08-28T10:37:35.226Z,8824
2018-08-28T10:38:36.698Z,14528
2018-08-28T10:39:38.143Z,9704
2018-08-28T10:40:39.566Z,8816
2018-08-28T10:41:41.003Z,8828
2018-08-28T10:42:42.428Z,11248
2018-08-28T10:43:43.891Z,20384
2018-08-28T10:44:45.290Z,18976
2018-08-28T10:45:46.744Z,19488
2018-08-28T10:46:48.384Z,18816
2018-08-28T10:47:49.700Z,18688
2018-08-28T10:48:51.051Z,18400
2018-08-28T10:49:52.452Z,18432
2018-08-28T10:50:53.849Z,8204
2018-08-28T10:51:55.295Z,12160
2018-08-28T10:52:56.852Z,12588
2018-08-28T10:53:58.193Z,18560
2018-08-28T10:54:59.643Z,11392
2018-08-28T10:56:01.088Z,8036
2018-08-28T10:57:02.529Z,18976
2018-08-28T10:58:03.987Z,18624
2018-08-28T10:59:05.388Z,18176
2018-08-28T11:00:06.797Z,15236
2018-08-28T11:01:08.282Z,18272
2018-08-28T11:02:09.859Z,14236
2018-08-28T11:03:11.302Z,8704
2018-08-28T11:04:12.764Z,11104
2018-08-28T11:05:14.251Z,13100
2018-08-28T11:06:15.652Z,17184
2018-08-28T11:07:17.060Z,18976
2018-08-28T11:08:18.487Z,18656
2018-08-28T11:09:19.890Z,18400
2018-08-28T11:10:21.324Z,17952
2018-08-28T11:11:22.724Z,7436
2018-08-28T11:12:24.131Z,7184
2018-08-28T11:13:25.599Z,17024
2018-08-28T11:14:27.041Z,14756
2018-08-28T11:15:28.450Z,17984
2018-08-28T11:16:29.924Z,17152
2018-08-28T11:17:31.357Z,18240
2018-08-28T11:18:32.829Z,18496
2018-08-28T11:19:34.228Z,18048
2018-08-28T11:20:35.682Z,17504
2018-08-28T11:21:37.157Z,17376
2018-08-28T11:22:38.610Z,17696
2018-08-28T11:23:40.121Z,17952
2018-08-28T11:24:41.608Z,17920
2018-08-28T11:25:42.982Z,12608
2018-08-28T11:26:44.387Z,18304
2018-08-28T11:27:45.806Z,10228
2018-08-28T11:28:47.301Z,18240
2018-08-28T11:29:48.734Z,18496
2018-08-28T11:30:50.240Z,18336
2018-08-28T11:31:51.687Z,18464
2018-08-28T11:32:53.233Z,18464
2018-08-28T11:33:54.732Z,8992
2018-08-28T11:34:56.180Z,18880
2018-08-28T11:35:57.658Z,18848
2018-08-28T11:36:59.090Z,18784
2018-08-28T11:38:00.541Z,18976
2018-08-28T11:39:02.073Z,18624
2018-08-28T11:40:03.476Z,18720
2018-08-28T11:41:04.905Z,18528
2018-08-28T11:42:06.328Z,18656
2018-08-28T11:43:07.781Z,18720
2018-08-28T11:44:09.205Z,18656
2018-08-28T11:45:10.693Z,18656
2018-08-28T11:46:12.179Z,18784
2018-08-28T11:47:13.640Z,18752
2018-08-28T11:48:15.117Z,18784
2018-08-28T11:49:16.653Z,18720
2018-08-28T11:50:18.062Z,18720
2018-08-28T11:51:19.466Z,18688
2018-08-28T11:52:20.906Z,18624
2018-08-28T11:53:22.356Z,18624
2018-08-28T11:54:23.788Z,18592
2018-08-28T11:55:25.218Z,18624
2018-08-28T11:56:26.753Z,18624
2018-08-28T11:57:28.152Z,18592
2018-08-28T11:58:29.532Z,18496
2018-08-28T11:59:30.981Z,18560
2018-08-28T12:00:32.444Z,18528
2018-08-28T12:01:33.890Z,18528
2018-08-28T12:02:35.307Z,18560
2018-08-28T12:03:36.862Z,18592
2018-08-28T12:04:38.326Z,18592
2018-08-28T12:05:39.830Z,18528
2018-08-28T12:06:41.338Z,18368
2018-08-28T12:07:42.722Z,18400
2018-08-28T12:08:44.111Z,18304
2018-08-28T12:09:45.539Z,18400
2018-08-28T12:10:46.979Z,18336
2018-08-28T12:11:48.423Z,18208
2018-08-28T12:12:49.878Z,18176
2018-08-28T12:13:51.373Z,18176
2018-08-28T12:14:52.834Z,18144
2018-08-28T12:15:54.238Z,18048
2018-08-28T12:16:55.693Z,17984
2018-08-28T12:17:57.157Z,17888
2018-08-28T12:18:58.604Z,17856
2018-08-28T12:20:00.074Z,17920
2018-08-28T12:21:01.523Z,17888
2018-08-28T12:22:02.970Z,17888
2018-08-28T12:23:04.475Z,17856
2018-08-28T12:24:05.883Z,17792
2018-08-28T12:25:07.350Z,17728
2018-08-28T12:26:08.760Z,17728
2018-08-28T12:27:10.260Z,17728
2018-08-28T12:28:11.706Z,17728
2018-08-28T12:29:13.235Z,17600
2018-08-28T12:30:14.637Z,17696
2018-08-28T12:31:16.041Z,17568
2018-08-28T12:32:17.465Z,17440
2018-08-28T12:33:18.921Z,17568
2018-08-28T12:34:20.439Z,17440
2018-08-28T12:35:21.842Z,17504
2018-08-28T12:36:23.284Z,17600
2018-08-28T12:37:24.749Z,17440
2018-08-28T12:38:26.226Z,17504
2018-08-28T12:39:27.692Z,17408
2018-08-28T12:40:29.146Z,17408
2018-08-28T12:41:30.549Z,17408
2018-08-28T12:42:32.032Z,17280
2018-08-28T12:43:33.442Z,17152
2018-08-28T12:44:34.910Z,17088
2018-08-28T12:45:36.317Z,16992
2018-08-28T12:46:37.788Z,16864
2018-08-28T12:47:39.234Z,16832
2018-08-28T12:48:40.683Z,16864
2018-08-28T12:49:42.120Z,16832
2018-08-28T12:50:43.538Z,16768
2018-08-28T12:51:45.205Z,16672
2018-08-28T12:52:46.724Z,16672
2018-08-28T12:53:48.167Z,16736
2018-08-28T12:54:49.591Z,16640
2018-08-28T12:55:50.980Z,16544
2018-08-28T12:56:52.570Z,16448
2018-08-28T12:57:54.003Z,16448
2018-08-28T12:58:55.463Z,16352
2018-08-28T12:59:57.016Z,16128
2018-08-28T13:00:58.503Z,16256
2018-08-28T13:01:59.942Z,16192
2018-08-28T13:03:01.374Z,16128
2018-08-28T13:04:02.827Z,16032
2018-08-28T13:05:04.322Z,15968
2018-08-28T13:06:05.789Z,15904
2018-08-28T13:07:07.272Z,15808
2018-08-28T13:08:08.664Z,15712
2018-08-28T13:09:10.080Z,15584
2018-08-28T13:10:11.485Z,15456
2018-08-28T13:11:12.953Z,15328
2018-08-28T13:12:14.358Z,15200
2018-08-28T13:13:15.796Z,15168
2018-08-28T13:14:17.221Z,14976
2018-08-28T13:15:18.624Z,14792
2018-08-28T13:16:20.061Z,14644
2018-08-28T13:17:21.534Z,14500
2018-08-28T13:18:22.951Z,14432
2018-08-28T13:19:24.678Z,14324
2018-08-28T13:20:26.144Z,14240
2018-08-28T13:21:27.547Z,14196
2018-08-28T13:22:29.001Z,14096
2018-08-28T13:23:30.415Z,13996
2018-08-28T13:24:31.871Z,14004
2018-08-28T13:25:33.492Z,13992
2018-08-28T13:26:34.749Z,13936
2018-08-28T13:27:36.252Z,13924
2018-08-28T13:28:37.691Z,13864
2018-08-28T13:29:39.097Z,13812
2018-08-28T13:30:40.518Z,13724
2018-08-28T13:31:41.980Z,13564
2018-08-28T13:32:43.440Z,13404
2018-08-28T13:33:44.883Z,13280
2018-08-28T13:34:46.326Z,13080
2018-08-28T13:35:47.908Z,13008
2018-08-28T13:36:49.401Z,12924
2018-08-28T13:37:50.898Z,12844
2018-08-28T13:38:52.319Z,12820
2018-08-28T13:39:53.760Z,12720
2018-08-28T13:40:55.166Z,12684
2018-08-28T13:41:56.629Z,12688
2018-08-28T13:42:58.062Z,12672
2018-08-28T13:43:59.537Z,12548
2018-08-28T13:45:01.008Z,12452
2018-08-28T13:46:02.416Z,12372
2018-08-28T13:47:04.003Z,12316
2018-08-28T13:48:05.452Z,12212
2018-08-28T13:49:06.876Z,12176
2018-08-28T13:50:08.348Z,12088
2018-08-28T13:51:09.772Z,11940
2018-08-28T13:52:11.179Z,11856
2018-08-28T13:53:12.602Z,11748
2018-08-28T13:54:14.244Z,11668
2018-08-28T13:55:15.608Z,11660
2018-08-28T13:56:17.131Z,11636
2018-08-28T13:57:18.586Z,11572
2018-08-28T13:58:19.987Z,11520
2018-08-28T13:59:21.466Z,11456
2018-08-28T14:00:22.961Z,11388
2018-08-28T14:01:24.361Z,11324
2018-08-28T14:02:25.793Z,11276
2018-08-28T14:03:27.249Z,11200
2018-08-28T14:04:28.747Z,11136
2018-08-28T14:05:30.236Z,11036
2018-08-28T14:06:31.705Z,10996
2018-08-28T14:07:33.161Z,10976
2018-08-28T14:08:34.581Z,10936
2018-08-28T14:09:36.030Z,10896
2018-08-28T14:10:37.450Z,10876
2018-08-28T14:11:38.912Z,10824
2018-08-28T14:12:40.382Z,10764
2018-08-28T14:13:41.965Z,10696
2018-08-28T14:14:43.196Z,10628
2018-08-28T14:15:44.595Z,10588
2018-08-28T14:16:46.005Z,10540
2018-08-28T14:17:47.455Z,10488
2018-08-28T14:18:48.890Z,10416
2018-08-28T14:19:50.319Z,10372
2018-08-28T14:20:51.800Z,10280
2018-08-28T14:21:53.250Z,10188
2018-08-28T14:22:54.656Z,10104
2018-08-28T14:23:56.062Z,10032
2018-08-28T14:24:57.554Z,9932
2018-08-28T14:25:59.030Z,9924
2018-08-28T14:27:00.436Z,9856
2018-08-28T14:28:01.934Z,9808
2018-08-28T14:29:03.529Z,9748
2018-08-28T14:30:04.901Z,9664
2018-08-28T14:31:06.374Z,9612
2018-08-28T14:32:07.850Z,9544
2018-08-28T14:33:09.245Z,9452
2018-08-28T14:34:10.663Z,9384
2018-08-28T14:35:12.240Z,9344
2018-08-28T14:36:13.677Z,9284
2018-08-28T14:37:15.235Z,9228
2018-08-28T14:38:16.715Z,9172
2018-08-28T14:39:18.118Z,9124
2018-08-28T14:40:19.536Z,9048
2018-08-28T14:41:20.948Z,8968
2018-08-28T14:42:22.452Z,8932
2018-08-28T14:43:23.926Z,8836
2018-08-28T14:44:25.388Z,8832
2018-08-28T14:45:26.807Z,8776
2018-08-28T14:46:28.275Z,8744
2018-08-28T14:47:29.686Z,8648
2018-08-28T14:48:31.094Z,8592
2018-08-28T14:49:32.609Z,8484
2018-08-28T14:50:33.977Z,8420
2018-08-28T14:51:35.373Z,8400
2018-08-28T14:52:36.793Z,8240
2018-08-28T14:53:38.251Z,7860
2018-08-28T14:54:39.712Z,8012
2018-08-28T14:55:41.159Z,8052
2018-08-28T14:56:42.734Z,8056
2018-08-28T14:57:44.167Z,7696
2018-08-28T14:58:45.627Z,7644
2018-08-28T14:59:47.029Z,7628
2018-08-28T15:00:48.469Z,7692
2018-08-28T15:01:49.944Z,7616
2018-08-28T15:02:51.382Z,7628
2018-08-28T15:03:52.785Z,7284
2018-08-28T15:04:54.228Z,7428
2018-08-28T15:05:55.681Z,7432
2018-08-28T15:06:57.177Z,7556
2018-08-28T15:07:58.555Z,7500
2018-08-28T15:09:00.003Z,7492
2018-08-28T15:10:01.406Z,7460
2018-08-28T15:11:02.858Z,7420
2018-08-28T15:12:04.340Z,7364
2018-08-28T15:13:05.769Z,7304
2018-08-28T15:14:07.218Z,7220
2018-08-28T15:15:08.680Z,7180
2018-08-28T15:16:10.123Z,7128
2018-08-28T15:17:11.611Z,7064
2018-08-28T15:18:13.018Z,6988
2018-08-28T15:19:14.481Z,6924
2018-08-28T15:20:16.075Z,6864
2018-08-28T15:21:17.462Z,6808
2018-08-28T15:22:18.949Z,6736
2018-08-28T15:23:20.376Z,6660
2018-08-28T15:24:21.874Z,6596
2018-08-28T15:25:23.389Z,6560
2018-08-28T15:26:24.826Z,6488
2018-08-28T15:27:26.331Z,6424
2018-08-28T15:28:27.694Z,6372
2018-08-28T15:29:29.147Z,6304
2018-08-28T15:30:30.624Z,6244
2018-08-28T15:31:32.155Z,6224
2018-08-28T15:32:33.698Z,6172
2018-08-28T15:33:35.069Z,6132
2018-08-28T15:34:36.525Z,6096
2018-08-28T15:35:38.045Z,6040
2018-08-28T15:36:39.485Z,5988
2018-08-28T15:37:40.973Z,5956
2018-08-28T15:38:42.385Z,5900
2018-08-28T15:39:43.786Z,5844
2018-08-28T15:40:45.217Z,5804
2018-08-28T15:41:46.681Z,5760
2018-08-28T15:42:48.128Z,5708
2018-08-28T15:43:49.560Z,5652
2018-08-28T15:44:51.848Z,5588
2018-08-28T15:45:53.252Z,5552
2018-08-28T15:46:54.704Z,5516
2018-08-28T15:47:56.118Z,5464
2018-08-28T15:48:57.589Z,5420
2018-08-28T15:49:59.062Z,5392
2018-08-28T15:51:00.569Z,5380
2018-08-28T15:52:02.003Z,5356
2018-08-28T15:53:03.471Z,5320
2018-08-28T15:54:04.878Z,5272
2018-08-28T15:55:06.320Z,5228
2018-08-28T15:56:07.724Z,5192
2018-08-28T15:57:09.150Z,5156
2018-08-28T15:58:10.555Z,5100
2018-08-28T15:59:12.025Z,5052
2018-08-28T16:00:13.479Z,4996
2018-08-28T16:01:14.956Z,4952
2018-08-28T16:02:16.513Z,4920
2018-08-28T16:03:17.936Z,4896
2018-08-28T16:04:19.400Z,4812
2018-08-28T16:05:20.860Z,4736
2018-08-28T16:06:22.301Z,4668
2018-08-28T16:07:23.739Z,4524
2018-08-28T16:08:25.144Z,4380
2018-08-28T16:09:26.625Z,4104
2018-08-28T16:10:28.041Z,4176
2018-08-28T16:11:29.482Z,4188
2018-08-28T16:12:30.967Z,3940
2018-08-28T16:13:32.369Z,3616
2018-08-28T16:14:33.819Z,3180
2018-08-28T16:15:35.243Z,3076
2018-08-28T16:16:36.636Z,3232
2018-08-28T16:17:38.057Z,3560
2018-08-28T16:18:39.496Z,3836
2018-08-28T16:19:40.950Z,3788
2018-08-28T16:20:42.397Z,3828
2018-08-28T16:21:43.863Z,3800
2018-08-28T16:22:45.378Z,3772
2018-08-28T16:23:46.911Z,3708
2018-08-28T16:24:48.247Z,3692
2018-08-28T16:25:49.647Z,3688
2018-08-28T16:26:51.082Z,3676
2018-08-28T16:27:52.569Z,3644
2018-08-28T16:28:53.929Z,3592
2018-08-28T16:29:55.490Z,3548
2018-08-28T16:30:56.814Z,3516
2018-08-28T16:31:58.278Z,3492
2018-08-28T16:32:59.729Z,3440
2018-08-28T16:34:01.250Z,3400
2018-08-28T16:35:03.255Z,3356
2018-08-28T16:36:04.658Z,3296
2018-08-28T16:37:06.131Z,3220
2018-08-28T16:38:07.534Z,3156
2018-08-28T16:39:08.934Z,3100
2018-08-28T16:40:10.333Z,3040
2018-08-28T16:41:11.918Z,2984
2018-08-28T16:42:13.270Z,2936
2018-08-28T16:43:14.745Z,2884
2018-08-28T16:44:16.166Z,2824
2018-08-28T16:45:17.590Z,2768
2018-08-28T16:46:19.058Z,2716
2018-08-28T16:47:20.573Z,2664
2018-08-28T16:48:22.162Z,2616
2018-08-28T16:49:23.550Z,2560
2018-08-28T16:50:25.028Z,2508
2018-08-28T16:51:26.452Z,2440
2018-08-28T16:52:27.865Z,2396
2018-08-28T16:53:29.290Z,2356
2018-08-28T16:54:30.694Z,2308
2018-08-28T16:55:32.181Z,2244
2018-08-28T16:56:33.590Z,2188
2018-08-28T16:57:35.046Z,2144
2018-08-28T16:58:36.485Z,2088
2018-08-28T16:59:37.908Z,2036
2018-08-28T17:00:39.313Z,1988
2018-08-28T17:01:40.905Z,1952
2018-08-28T17:02:42.217Z,1908
2018-08-28T17:03:43.630Z,1864
2018-08-28T17:04:45.055Z,1828
2018-08-28T17:05:46.505Z,1784
2018-08-28T17:06:47.919Z,1740
2018-08-28T17:07:49.359Z,1696
2018-08-28T17:08:50.871Z,1652
2018-08-28T17:09:52.281Z,1616
2018-08-28T17:10:53.766Z,1564
2018-08-28T17:11:55.169Z,1524
2018-08-28T17:12:56.669Z,1472
2018-08-28T17:13:58.243Z,1456
2018-08-28T17:14:59.722Z,1432
2018-08-28T17:16:01.172Z,1404
2018-08-28T17:17:02.574Z,1372
2018-08-28T17:18:03.976Z,1336
2018-08-28T17:19:05.483Z,1284
2018-08-28T17:20:06.987Z,1208
2018-08-28T17:21:08.446Z,1140
2018-08-28T17:22:09.860Z,1176
2018-08-28T17:23:11.300Z,1164
2018-08-28T17:24:12.741Z,1120
2018-08-28T17:25:14.159Z,1032
2018-08-28T17:26:15.643Z,984
2018-08-28T17:27:17.099Z,936
2018-08-28T17:28:18.630Z,956
2018-08-28T17:29:20.128Z,928
2018-08-28T17:30:21.565Z,864
2018-08-28T17:31:22.965Z,796
2018-08-28T17:32:24.493Z,796
2018-08-28T17:33:25.957Z,748
2018-08-28T17:34:27.359Z,756
2018-08-28T17:35:28.786Z,764
2018-08-28T17:36:30.208Z,740
2018-08-28T17:37:31.743Z,716
2018-08-28T17:38:33.125Z,696
2018-08-28T17:39:34.520Z,676
2018-08-28T17:40:35.939Z,656
2018-08-28T17:41:37.347Z,640
2018-08-28T17:42:38.918Z,632
2018-08-28T17:43:40.251Z,624
2018-08-28T17:44:41.691Z,608
2018-08-28T17:45:43.090Z,584
2018-08-28T17:46:44.507Z,552
2018-08-28T17:47:45.906Z,556
2018-08-28T17:48:47.433Z,540
2018-08-28T17:49:48.786Z,528
2018-08-28T17:50:50.180Z,516
2018-08-28T17:51:51.591Z,500
2018-08-28T17:52:53.011Z,484
2018-08-28T17:53:54.453Z,468
2018-08-28T17:54:55.854Z,448
2018-08-28T17:55:57.250Z,436
2018-08-28T17:56:58.708Z,420
2018-08-28T17:58:00.079Z,404
2018-08-28T17:59:01.522Z,392
2018-08-28T18:00:03.185Z,376
2018-08-28T18:01:04.746Z,360
2018-08-28T18:02:06.250Z,344
2018-08-28T18:03:07.690Z,332
2018-08-28T18:04:09.201Z,316
2018-08-28T18:05:10.879Z,296
2018-08-28T18:06:12.334Z,280
2018-08-28T18:07:13.766Z,264
2018-08-28T18:08:15.159Z,252
2018-08-28T18:09:16.553Z,236
2018-08-28T18:10:17.997Z,220
2018-08-28T18:11:20.120Z,208
2018-08-28T18:12:21.524Z,188
2018-08-28T18:13:23.150Z,172
2018-08-28T18:14:24.562Z,164
2018-08-28T18:15:26.021Z,152
2018-08-28T18:16:27.440Z,144
2018-08-28T18:17:28.858Z,140
2018-08-28T18:18:30.415Z,132
2018-08-28T18:19:31.848Z,120
2018-08-28T18:20:33.429Z,116
2018-08-28T18:21:34.906Z,104
2018-08-28T18:22:36.567Z,100
2018-08-28T18:23:37.857Z,92
2018-08-28T18:24:39.299Z,84
2018-08-28T18:25:40.695Z,76
2018-08-28T18:26:42.152Z,68
2018-08-28T18:27:43.549Z,64
2018-08-28T18:28:45.057Z,56
2018-08-28T18:29:46.432Z,52
2018-08-28T18:30:47.827Z,44
2018-08-28T18:31:49.240Z,40
2018-08-28T18:32:50.628Z,36
2018-08-28T18:33:52.080Z,36
2018-08-28T18:34:53.595Z,32
2018-08-28T18:35:55.346Z,24
2018-08-28T18:36:56.705Z,20
2018-08-28T18:37:58.256Z,20
2018-08-28T18:38:59.701Z,20
2018-08-28T18:40:01.313Z,16
2018-08-28T18:41:02.625Z,12
2018-08-28T18:42:04.002Z,12
2018-08-28T18:43:05.423Z,8
2018-08-28T18:44:07.105Z,8
2018-08-28T18:45:08.573Z,8
2018-08-28T18:46:10.030Z,8
2018-08-28T18:47:11.485Z,4
2018-08-28T18:48:12.894Z,4
2018-08-28T18:49:14.298Z,4
2018-08-28T18:50:16.167Z,4
2018-08-28T18:51:17.883Z,4
2018-08-28T18:52:19.544Z,0
2018-08-28T18:53:20.946Z,0
2018-08-28T18:54:22.540Z,4
2018-08-28T18:55:23.968Z,4
2018-08-28T18:56:25.393Z,0
2018-08-28T18:57:26.878Z,0
2018-08-28T18:58:28.374Z,0
2018-08-28T18:59:30.210Z,0
2018-08-28T19:00:31.699Z,0
2018-08-28T19:01:33.134Z,0
2018-08-28T19:02:34.771Z,0
2018-08-28T19:03:36.249Z,0
2018-08-28T19:04:37.971Z,0
2018-08-28T19:05:39.401Z,0
2018-08-28T19:06:41.171Z,0
2018-08-28T19:07:42.710Z,0
2018-08-28T19:08:44.208Z,0
2018-08-28T19:09:45.675Z,0
2018-08-28T19:10:47.116Z,0
2018-08-28T19:11:48.536Z,0
2018-08-28T19:12:49.974Z,0
2018-08-28T19:13:51.470Z,0
2018-08-28T19:14:52.894Z,0
2018-08-28T19:15:54.290Z,0
2018-08-28T19:16:55.771Z,0
2018-08-28T19:17:57.172Z,0
2018-08-28T19:18:58.632Z,0
2018-08-28T19:20:00.079Z,0
2018-08-28T19:21:01.557Z,0
2018-08-28T19:22:02.983Z,0
2018-08-28T19:23:04.445Z,0
2018-08-28T19:24:05.843Z,0
2018-08-28T19:25:07.271Z,0
2018-08-28T19:26:08.772Z,0
2018-08-28T19:27:10.175Z,0
2018-08-28T19:28:11.575Z,0
2018-08-28T19:29:13.020Z,0
2018-08-28T19:30:14.557Z,0
2018-08-28T19:31:15.960Z,0
2018-08-28T19:32:17.389Z,0
2018-08-28T19:33:18.884Z,0
2018-08-28T19:34:20.284Z,0
2018-08-28T19:35:21.736Z,0
2018-08-28T19:36:23.182Z,0
2018-08-28T19:37:24.660Z,0
2018-08-28T19:38:26.030Z,0
2018-08-28T19:39:27.491Z,0
2018-08-28T19:39:54.902Z,0
2018-08-28T19:40:56.264Z,0
2018-08-28T19:41:57.689Z,0
2018-08-28T19:42:59.149Z,0